^^

Nearby METAR Reports

 

KBJC - Broomfield/Jeffc, Colorado, USA
Distance from station: ESE 4mi, 6km
Updated: 12/11/2019 2:54am
Clear
Clear
 Wind from SSW
Wind: SSW 3 mph , 6 km/h
Temperature: 32°F , 0°C
Dew Point: 14°F , -10°C
Humidity: 47%
Barometer: 1021 hPa
Clouds: Clear
Visibility: 10 miles , 16 km
2019/12/11 09:54 KBJC 110954Z AUTO 20003KT 10SM CLR 00/M10 A3015 RMK AO2
KBDU - Boulder Muni, Colorado, USA
Distance from station: NNW 8mi, 13km
Updated: 12/11/2019 2:47am
Clear
Clear
 Wind from calm
Wind: Calm
Temperature: 25°F , -4°C
Dew Point: 23°F , -5°C
Humidity: 93%
Barometer: 1021 hPa
Clouds: Clear
Visibility: 10 miles , 16 km
2019/12/11 09:47 KBDU 110947Z AUTO 00000KT 10SM CLR M04/M05 A3015 RMK AO2
 
KEIK - Erie Muni, Colorado, USA
Distance from station: NE 8mi, 14km
Updated: 12/11/2019 2:58am
Clear
Clear
 Wind from calm
Wind: Calm
Temperature: 19°F , -7°C
Dew Point: 18°F , -8°C
Humidity: 93%
Barometer: 1023.4 hPa
Clouds: Clear
Visibility: 7 miles , 11 km
2019/12/11 09:58 KEIK 110958Z AUTO 00000KT 7SM CLR M07/M08 A3022 RMK AO2 T10701078
KLMO - Longmont/Vbrand, Colorado, USA
Distance from station: N 17mi, 27km
Updated: 12/11/2019 2:35am
Clear
Clear
 Wind from WNW
Wind: WNW 3 mph , 6 km/h
Temperature: 19°F , -7°C
Dew Point: 18°F , -8°C
Humidity: 93%
Barometer: 1022.4 hPa
Clouds: Clear
Visibility: 7 miles , 11 km
2019/12/11 09:35 KLMO 110935Z AUTO 30003KT 7SM CLR M07/M08 A3019 RMK AO2 T10671085
 
KBKF - Buckley Angb/Den, Colorado, USA
Distance from station: ESE 26mi, 42km
Updated: 12/11/2019 2:58am
Partly cloudy
Partly cloudy
 Wind from S
Wind: S 12 mph , 19 km/h
Temperature: 30°F , -1°C
Wind Chill: 20°F , -7°C
Dew Point: 14°F , -10°C
Humidity: 51%
Barometer: 1021 hPa
Clouds: Partly cloudy
Visibility: 10 miles , 16 km
Cloud details: Partly cloudy 22000 ft
2019/12/11 09:58 KBKF 110958Z 18010KT 10SM SCT220 M01/M10 A3015 RMK AO2A SLP217 T10101101
KDEN - Denver (dia), Colorado, USA
Distance from station: E 27mi, 44km
Updated: 12/11/2019 2:53am
Few Clouds
Few Clouds
 Wind from S
Wind: S 9 mph , 15 km/h
Temperature: 27°F , -3°C
Wind Chill: 18°F , -8°C
Dew Point: 16°F , -9°C
Humidity: 64%
Barometer: 1021 hPa
Clouds: Few Clouds
Visibility: 10 miles , 16 km
Cloud details: Few Clouds 16000 ft
Few Clouds 22000 ft
2019/12/11 09:53 KDEN 110953Z 18008KT 10SM FEW160 FEW220 M03/M09 A3015 RMK AO2 SLP218 T10331089 $
 
KAPA - Denver/Arapahoe, Colorado, USA
Distance from station: SE 30mi, 48km
Updated: 12/11/2019 2:53am
Clear
Clear
 Wind from SE
Wind: SE 9 mph , 15 km/h
Temperature: 34°F , 1°C
Wind Chill: 27°F , -3°C
Dew Point: 12°F , -11°C
Humidity: 41%
Barometer: 1021.3 hPa
Clouds: Clear
Visibility: 10 miles , 16 km
2019/12/11 09:53 KAPA 110953Z 14008KT 10SM CLR 01/M11 A3016 RMK AO2 SLP222 T00111106
K0CO - Berthoud Pass, Colorado, USA
Distance from station: WSW 33mi, 54km
Updated: 12/11/2019 2:48am
Clear
Clear
 Wind from WNW
Wind: WNW 30 mph , 48 km/h, Gust: 43 mph , 69 km/h
Temperature: 14°F , -10°C
Wind Chill: -7°F , -22°C
Dew Point: -0°F , -18°C
Humidity: 52%
Barometer: 1023 hPa
Clouds: Clear
2019/12/11 09:48 K0CO 110948Z AUTO 30026G37KT CLR M10/M18 A3021 RMK AO2 PWINO
 
KFTG - Denver F. Range, Colorado, USA
Distance from station: ESE 34mi, 54km
Updated: 12/11/2019 2:54am
Clear
Clear
 Wind from S
Wind: S 12 mph , 19 km/h
Temperature: 30°F , -1°C
Wind Chill: 20°F , -7°C
Dew Point: 19°F , -7°C
Humidity: 64%
Barometer: 1021.3 hPa
Clouds: Clear
Visibility: 10 miles , 16 km
2019/12/11 09:54 KFTG 110954Z AUTO 19010KT 10SM CLR M01/M07 A3016 RMK AO2 T10131067
KFNL - Ft Collins/Loveland, Colorado, USA
Distance from station: N 37mi, 59km
Updated: 12/11/2019 3:13am
Mist, Clear
Mist, Clear
 Wind from SSW
Wind: SSW 3 mph , 6 km/h
Temperature: 19°F , -7°C
Dew Point: 18°F , -8°C
Humidity: 93%
Barometer: 1021.3 hPa
Summary: Mist
Clouds: Clear
Visibility: 2 miles , 3 km
2019/12/11 10:13 KFNL 111013Z AUTO 21003KT 2SM BR CLR M07/M08 A3016 RMK AO2 VIS 1 1/4V5 FZRANO
 
KGNB - Granby/Grand Co, Colorado, USA
Distance from station: WNW 42mi, 67km
Updated: 12/11/2019 2:52am
Clear
Clear
 Wind from calm
Wind: Calm
Temperature: 5°F , -15°C
Dew Point: 1°F , -17°C
Humidity: 85%
Barometer: 1026.1 hPa
Clouds: Clear
Visibility: 10 miles , 16 km
2019/12/11 09:52 KGNB 110952Z AUTO 00000KT 10SM CLR M15/M17 A3030 RMK AO2 T11521166
KGXY - Greeley/Weld, Colorado, USA
Distance from station: NE 44mi, 71km
Updated: 12/11/2019 2:56am
Few Clouds
Few Clouds
 Wind from calm
Wind: Calm
Temperature: 16°F , -9°C
Dew Point: 12°F , -11°C
Humidity: 86%
Barometer: 1022.4 hPa
Clouds: Few Clouds
Visibility: 9 miles , 14 km
Cloud details: Few Clouds 100 ft
2019/12/11 09:56 KGXY 110956Z AUTO 00000KT 9SM FEW001 M09/M11 A3019 RMK AO2 SLP274 T10941106 FZRANO
 
KMNH - Monument/Elbert, Colorado, USA
Distance from station: SSE 56mi, 90km
Updated: 12/11/2019 2:48am
Clear
Clear
 
Temperature: 23°F , -5°C
Dew Point: 12°F , -11°C
Humidity: 63%
Barometer: 1022.7 hPa
Clouds: Clear
Visibility: 10 miles , 16 km
2019/12/11 09:48 KMNH 110948Z AUTO 10SM CLR M05/M11 A3020 RMK AO2